createdAt,value
2022-12-04T00:00:14.406Z,96490.28
2022-12-04T00:02:41.680Z,96491.00
2022-12-04T00:05:09.214Z,96496.28
2022-12-04T00:07:36.196Z,96498.69
2022-12-04T00:10:03.390Z,96485.69
2022-12-04T00:12:30.125Z,96486.41
2022-12-04T00:17:47.646Z,96500.69
2022-12-04T00:20:14.301Z,96493.31
2022-12-04T00:22:40.990Z,96496.13
2022-12-04T00:25:08.184Z,96503.25
2022-12-04T00:27:34.817Z,96494.94
2022-12-04T00:30:01.684Z,96498.06
2022-12-04T00:32:28.377Z,96500.34
2022-12-04T00:34:55.137Z,96499.63
2022-12-04T00:37:21.806Z,96499.78
2022-12-04T00:39:48.588Z,96501.94
2022-12-04T00:42:15.241Z,96500.03
2022-12-04T00:44:42.029Z,96498.88
2022-12-04T00:47:08.704Z,96507.91
2022-12-04T00:49:35.580Z,96494.59
2022-12-04T00:52:02.260Z,96490.03
2022-12-04T00:54:29.001Z,96485.34
2022-12-04T00:56:55.642Z,96489.34
2022-12-04T00:59:22.408Z,96497.47
2022-12-04T01:01:49.125Z,96498.78
2022-12-04T01:04:15.812Z,96498.03
2022-12-04T01:06:42.472Z,96511.63
2022-12-04T01:09:09.409Z,96508.03
2022-12-04T01:11:36.619Z,96503.91
2022-12-04T01:14:03.476Z,96498.47
2022-12-04T01:16:40.005Z,96488.72
2022-12-04T01:19:09.004Z,96495.44
2022-12-04T01:21:36.515Z,96490.56
2022-12-04T01:24:03.634Z,96492.56
2022-12-04T01:26:30.463Z,96495.84
2022-12-04T01:28:57.495Z,96503.28
2022-12-04T01:31:26.186Z,96496.41
2022-12-04T01:33:53.616Z,96496.41
2022-12-04T01:36:23.308Z,96498.41
2022-12-04T01:38:50.628Z,96499.13
2022-12-04T01:41:21.784Z,96508.56
2022-12-04T01:44:08.813Z,96498.25
2022-12-04T01:46:35.590Z,96501.53
2022-12-04T01:49:03.326Z,96501.38
2022-12-04T01:51:34.987Z,96501.38
2022-12-04T01:54:06.074Z,96501.25
2022-12-04T01:56:41.150Z,96495.81
2022-12-04T01:59:08.435Z,96500.50
2022-12-04T02:01:40.952Z,96505.78
2022-12-04T02:04:07.698Z,96501.78
2022-12-04T02:06:34.379Z,96500.91
2022-12-04T02:09:01.369Z,96498.22
2022-12-04T02:11:35.066Z,96501.47
2022-12-04T02:14:23.714Z,96504.19
2022-12-04T02:17:11.903Z,96506.19
2022-12-04T02:20:04.351Z,96508.75
2022-12-04T02:22:46.721Z,96512.75
2022-12-04T02:25:48.913Z,96506.59
2022-12-04T02:28:40.302Z,96508.44
2022-12-04T02:31:12.581Z,96514.28
2022-12-04T02:33:44.739Z,96516.25
2022-12-04T02:36:16.222Z,96521.69
2022-12-04T02:38:47.646Z,96512.84
2022-12-04T02:41:24.095Z,96502.69
2022-12-04T02:43:58.221Z,96495.81
2022-12-04T02:46:36.622Z,96506.69
2022-12-04T02:49:05.447Z,96503.25
2022-12-04T02:51:35.487Z,96500.41
2022-12-04T02:54:12.746Z,96499.81
2022-12-04T02:56:42.241Z,96498.41
2022-12-04T02:59:13.140Z,96497.69
2022-12-04T03:01:43.256Z,96492.78
2022-12-04T03:04:25.324Z,96482.69
2022-12-04T03:07:02.813Z,96482.50
2022-12-04T03:09:37.954Z,96472.22
2022-12-04T03:12:12.374Z,96485.06
2022-12-04T03:14:45.654Z,96474.22
2022-12-04T03:17:24.311Z,96481.47
2022-12-04T03:19:55.646Z,96482.03
2022-12-04T03:22:23.919Z,96479.91
2022-12-04T03:24:53.464Z,96473.59
2022-12-04T03:27:47.297Z,96470.00
2022-12-04T03:30:20.815Z,96465.69
2022-12-04T03:32:55.706Z,96474.41
2022-12-04T03:35:26.645Z,96480.41
2022-12-04T03:38:05.581Z,96485.66
2022-12-04T03:40:36.481Z,96494.38
2022-12-04T03:43:03.056Z,96493.00
2022-12-04T03:46:05.054Z,96489.81
2022-12-04T03:48:33.270Z,96486.06
2022-12-04T03:51:44.539Z,96479.63
2022-12-04T03:54:30.817Z,96473.88
2022-12-04T03:57:01.572Z,96473.00
2022-12-04T03:59:34.561Z,96485.91
2022-12-04T04:02:02.267Z,96482.00
2022-12-04T04:04:32.850Z,96479.69
2022-12-04T04:07:04.821Z,96476.25
2022-12-04T04:09:36.035Z,96471.97
2022-12-04T04:12:09.519Z,96474.69
2022-12-04T04:14:58.769Z,96474.69
2022-12-04T04:18:07.867Z,96478.09
2022-12-04T04:20:58.996Z,96464.38
2022-12-04T04:23:46.061Z,96464.94
2022-12-04T04:26:13.444Z,96473.06
2022-12-04T04:28:42.328Z,96466.22
2022-12-04T04:31:36.749Z,96462.22
2022-12-04T04:34:25.452Z,96460.78
2022-12-04T04:37:20.525Z,96458.94
2022-12-04T04:40:05.706Z,96445.22
2022-12-04T04:42:43.629Z,96446.53
2022-12-04T04:45:39.334Z,96447.81
2022-12-04T04:48:10.253Z,96462.63
2022-12-04T04:50:38.142Z,96459.91
2022-12-04T04:53:08.550Z,96451.78
2022-12-04T04:55:36.339Z,96446.34
2022-12-04T04:58:21.762Z,96455.94
2022-12-04T05:01:04.913Z,96470.03
2022-12-04T05:03:33.081Z,96475.63
2022-12-04T05:05:59.714Z,96472.38
2022-12-04T05:08:26.625Z,96485.94
2022-12-04T05:10:53.785Z,96478.50
2022-12-04T05:13:21.661Z,96483.94
2022-12-04T05:16:05.975Z,96498.78
2022-12-04T05:18:34.082Z,96482.31
2022-12-04T05:21:08.087Z,96476.91
2022-12-04T05:23:34.985Z,96483.78
2022-12-04T05:26:04.216Z,96472.75
2022-12-04T05:28:31.424Z,96478.19
2022-12-04T05:30:59.787Z,96485.59
2022-12-04T05:33:26.620Z,96480.19
2022-12-04T05:36:00.816Z,96486.88
2022-12-04T05:38:27.831Z,96480.88
2022-12-04T05:40:54.511Z,96482.31
2022-12-04T05:43:21.253Z,96495.16
2022-12-04T05:45:47.971Z,96495.75
2022-12-04T05:48:15.485Z,96506.59
2022-12-04T05:50:42.186Z,96503.16
2022-12-04T05:53:08.945Z,96491.59
2022-12-04T05:55:35.628Z,96497.03
2022-12-04T05:58:03.732Z,96499.00
2022-12-04T06:00:30.862Z,96503.72
2022-12-04T06:02:57.663Z,96501.72
2022-12-04T06:05:24.370Z,96511.84
2022-12-04T06:07:51.182Z,96510.44
2022-12-04T06:10:17.900Z,96515.84
2022-12-04T06:12:44.659Z,96506.81
2022-12-04T06:15:11.354Z,96505.53
2022-12-04T06:17:38.074Z,96510.09
2022-12-04T06:20:10.924Z,96506.81
2022-12-04T06:22:38.238Z,96512.97
2022-12-04T06:25:05.217Z,96510.09
2022-12-04T06:27:31.960Z,96510.09
2022-12-04T06:29:59.053Z,96520.94
2022-12-04T06:32:26.074Z,96522.38
2022-12-04T06:34:53.841Z,96526.38
2022-12-04T06:37:22.363Z,96530.53
2022-12-04T06:39:49.146Z,96529.94
2022-12-04T06:42:16.136Z,96537.22
2022-12-04T06:44:42.793Z,96533.78
2022-12-04T06:47:09.699Z,96536.50
2022-12-04T06:49:36.468Z,96534.34
2022-12-04T06:52:03.942Z,96534.19
2022-12-04T06:54:30.622Z,96532.75
2022-12-04T06:56:57.335Z,96533.47
2022-12-04T06:59:23.981Z,96536.56
2022-12-04T07:01:50.848Z,96537.88
2022-12-04T07:04:17.566Z,96541.50
2022-12-04T07:06:44.325Z,96538.34
2022-12-04T07:09:13.941Z,96552.41
2022-12-04T07:11:41.692Z,96552.13
2022-12-04T07:14:16.129Z,96550.75
2022-12-04T07:16:43.669Z,96556.03
2022-12-04T07:19:12.223Z,96554.59
2022-12-04T07:21:40.320Z,96552.66
2022-12-04T07:24:15.441Z,96550.88
2022-12-04T07:26:42.252Z,96554.31
2022-12-04T07:29:10.251Z,96555.94
2022-12-04T07:31:37.185Z,96557.75
2022-12-04T07:34:03.942Z,96549.63
2022-12-04T07:36:30.749Z,96561.53
2022-12-04T07:38:57.967Z,96562.41
2022-12-04T07:41:24.818Z,96555.56
2022-12-04T07:43:51.630Z,96557.00
2022-12-04T07:46:21.299Z,96559.16
2022-12-04T07:48:48.330Z,96568.88
2022-12-04T07:51:23.692Z,96574.28
2022-12-04T07:53:53.894Z,96576.84
2022-12-04T07:56:21.379Z,96572.13
2022-12-04T07:58:48.147Z,96571.22
2022-12-04T08:01:18.280Z,96579.19
2022-12-04T08:03:48.565Z,96586.56
2022-12-04T08:06:18.170Z,96594.31
2022-12-04T08:08:45.679Z,96592.69
2022-12-04T08:11:15.363Z,96584.91
2022-12-04T08:13:42.232Z,96587.94
2022-12-04T08:16:10.445Z,96586.31
2022-12-04T08:18:38.121Z,96582.53
2022-12-04T08:21:10.248Z,96585.56
2022-12-04T08:23:37.894Z,96585.19
2022-12-04T08:26:08.881Z,96588.41
2022-12-04T08:28:36.373Z,96590.75
2022-12-04T08:31:14.048Z,96586.41
2022-12-04T08:33:55.248Z,96582.56
2022-12-04T08:36:26.878Z,96583.47
2022-12-04T08:38:54.925Z,96582.91
2022-12-04T08:41:24.044Z,96575.00
2022-12-04T08:43:54.553Z,96577.47
2022-12-04T08:46:21.664Z,96574.38
2022-12-04T08:48:48.933Z,96575.44
2022-12-04T08:51:21.428Z,96567.09
2022-12-04T08:53:48.292Z,96563.66
2022-12-04T08:56:15.086Z,96568.69
2022-12-04T08:58:42.349Z,96559.84
2022-12-04T09:01:12.105Z,96569.25
2022-12-04T09:03:39.601Z,96568.31
2022-12-04T09:06:08.322Z,96567.81
2022-12-04T09:08:35.756Z,96568.22
2022-12-04T09:11:04.963Z,96557.19
2022-12-04T09:13:35.065Z,96558.47
2022-12-04T09:16:12.296Z,96552.34
2022-12-04T09:18:44.976Z,96553.78
2022-12-04T09:21:19.463Z,96560.31
2022-12-04T09:23:52.872Z,96564.44
2022-12-04T09:26:28.460Z,96562.09
2022-12-04T09:28:56.492Z,96560.47
2022-12-04T09:31:32.487Z,96558.66
2022-12-04T09:34:01.744Z,96558.47
2022-12-04T09:36:28.670Z,96550.72
2022-12-04T09:38:55.563Z,96556.47
2022-12-04T09:41:22.280Z,96547.25
2022-12-04T09:44:08.702Z,96553.41
2022-12-04T09:46:51.209Z,96551.97
2022-12-04T09:49:40.258Z,96560.75
2022-12-04T09:52:16.193Z,96565.97
2022-12-04T09:54:46.182Z,96559.63
2022-12-04T09:57:47.166Z,96558.75
2022-12-04T10:00:15.070Z,96562.44
2022-12-04T10:02:44.813Z,96563.22
2022-12-04T10:05:34.247Z,96555.31
2022-12-04T10:08:16.466Z,96553.50
2022-12-04T10:10:53.256Z,96554.97
2022-12-04T10:13:30.624Z,96562.19
2022-12-04T10:16:04.486Z,96565.25
2022-12-04T10:18:49.314Z,96563.81
2022-12-04T10:21:35.291Z,96576.81
2022-12-04T10:24:13.928Z,96580.44
2022-12-04T10:26:51.083Z,96579.50
2022-12-04T10:29:31.044Z,96577.28
2022-12-04T10:32:05.600Z,96580.00
2022-12-04T10:34:32.801Z,96587.06
2022-12-04T10:37:02.432Z,96585.34
2022-12-04T10:39:38.287Z,96592.53
2022-12-04T10:42:27.468Z,96590.19
2022-12-04T10:44:54.318Z,96599.88
2022-12-04T10:47:22.516Z,96596.81
2022-12-04T10:49:49.601Z,96607.59
2022-12-04T10:52:16.208Z,96600.28
2022-12-04T10:54:59.927Z,96598.44
2022-12-04T10:57:56.091Z,96607.81
2022-12-04T11:00:34.418Z,96605.41
2022-12-04T11:03:03.513Z,96608.81
2022-12-04T11:05:33.439Z,96602.44
2022-12-04T11:08:01.377Z,96606.22
2022-12-04T11:10:31.942Z,96601.66
2022-12-04T11:13:16.122Z,96591.13
2022-12-04T11:15:48.262Z,96589.16
2022-12-04T11:18:22.031Z,96594.00
2022-12-04T11:21:01.091Z,96593.63
2022-12-04T11:23:32.609Z,96591.97
2022-12-04T11:26:05.473Z,96584.88
2022-12-04T11:28:41.811Z,96576.31
2022-12-04T11:31:11.492Z,96578.31
2022-12-04T11:33:47.462Z,96575.06
2022-12-04T11:36:26.317Z,96571.06
2022-12-04T11:38:54.726Z,96569.63
2022-12-04T11:41:32.412Z,96573.94
2022-12-04T11:44:00.879Z,96570.81
2022-12-04T11:46:30.739Z,96568.97
2022-12-04T11:48:57.868Z,96564.06
2022-12-04T11:52:01.133Z,96564.91
2022-12-04T11:55:04.456Z,96561.25
2022-12-04T11:57:46.229Z,96571.53
2022-12-04T12:00:18.859Z,96561.41
2022-12-04T12:03:07.285Z,96563.97
2022-12-04T12:06:08.107Z,96566.84
2022-12-04T12:08:45.995Z,96554.84
2022-12-04T12:11:18.660Z,96553.59
2022-12-04T12:14:24.425Z,96549.75
2022-12-04T12:17:23.606Z,96551.97
2022-12-04T12:20:29.352Z,96541.84
2022-12-04T12:23:08.330Z,96541.84
2022-12-04T12:25:38.609Z,96541.13
2022-12-04T12:28:21.335Z,96540.91
2022-12-04T12:33:47.099Z,96532.28
2022-12-04T12:36:14.678Z,96538.34
2022-12-04T12:39:01.554Z,96534.84
2022-12-04T12:41:34.916Z,96532.28
2022-12-04T12:44:10.036Z,96531.88
2022-12-04T12:46:41.730Z,96532.84
2022-12-04T12:49:34.873Z,96529.16
2022-12-04T12:52:06.529Z,96528.47
2022-12-04T12:54:39.460Z,96517.94
2022-12-04T12:57:20.921Z,96512.97
2022-12-04T12:59:50.984Z,96513.13
2022-12-04T13:02:22.920Z,96513.44
2022-12-04T13:04:51.150Z,96514.31
2022-12-04T13:07:17.805Z,96512.88
2022-12-04T13:09:56.923Z,96503.16
2022-12-04T13:12:24.622Z,96506.41
2022-12-04T13:14:51.396Z,96502.13
2022-12-04T13:17:25.941Z,96500.50
2022-12-04T13:19:55.251Z,96503.94
2022-12-04T13:22:42.529Z,96492.69
2022-12-04T13:25:47.810Z,96499.69
2022-12-04T13:28:23.791Z,96500.81
2022-12-04T13:30:56.534Z,96499.41
2022-12-04T13:33:52.790Z,96500.13
2022-12-04T13:36:19.567Z,96492.84
2022-12-04T13:39:23.341Z,96480.16
2022-12-04T13:41:59.135Z,96482.16
2022-12-04T13:44:26.559Z,96485.97
2022-12-04T13:47:08.239Z,96483.25
2022-12-04T13:49:46.007Z,96477.69
2022-12-04T13:52:40.827Z,96485.84
2022-12-04T13:55:40.205Z,96483.84
2022-12-04T13:58:11.411Z,96487.84
2022-12-04T14:00:42.613Z,96487.09
2022-12-04T14:03:25.745Z,96484.38
2022-12-04T14:05:52.984Z,96479.38
2022-12-04T14:08:19.707Z,96478.66
2022-12-04T14:11:00.818Z,96472.91
2022-12-04T14:13:48.867Z,96482.31
2022-12-04T14:16:29.254Z,96476.91
2022-12-04T14:19:01.437Z,96475.47
2022-12-04T14:21:42.686Z,96479.75
2022-12-04T14:24:30.160Z,96470.03
2022-12-04T14:27:11.279Z,96473.63
2022-12-04T14:29:50.085Z,96463.66
2022-12-04T14:32:23.989Z,96469.63
2022-12-04T14:34:51.116Z,96473.63
2022-12-04T14:37:23.116Z,96468.19
2022-12-04T14:39:51.510Z,96476.47
2022-12-04T14:42:25.325Z,96475.75
2022-12-04T14:44:59.819Z,96477.06
2022-12-04T14:47:36.872Z,96472.03
2022-12-04T14:50:15.776Z,96472.59
2022-12-04T14:53:17.670Z,96470.44
2022-12-04T14:56:07.251Z,96476.25
2022-12-04T14:58:37.969Z,96469.56
2022-12-04T15:01:25.437Z,96468.28
2022-12-04T15:03:59.720Z,96464.63
2022-12-04T15:06:27.562Z,96469.31
2022-12-04T15:09:21.635Z,96467.50
2022-12-04T15:12:12.076Z,96471.09
2022-12-04T15:14:44.377Z,96475.09
2022-12-04T15:17:12.541Z,96468.00
2022-12-04T15:19:40.073Z,96475.16
2022-12-04T15:22:22.721Z,96473.16
2022-12-04T15:24:50.922Z,96469.91
2022-12-04T15:27:20.449Z,96476.59
2022-12-04T15:29:51.508Z,96472.59
2022-12-04T15:32:20.453Z,96470.75
2022-12-04T15:34:55.942Z,96472.59
2022-12-04T15:37:26.360Z,96471.00
2022-12-04T15:39:53.916Z,96477.13
2022-12-04T15:42:24.062Z,96474.13
2022-12-04T15:45:12.738Z,96489.28
2022-12-04T15:47:42.539Z,96481.94
2022-12-04T15:50:15.756Z,96488.78
2022-12-04T15:52:51.801Z,96492.78
2022-12-04T15:55:19.997Z,96491.91
2022-12-04T15:58:02.226Z,96503.88
2022-12-04T16:00:32.526Z,96510.09
2022-12-04T16:03:00.109Z,96507.69
2022-12-04T16:05:35.562Z,96510.63
2022-12-04T16:08:24.770Z,96514.34
2022-12-04T16:11:12.356Z,96519.13
2022-12-04T16:13:40.291Z,96517.03
2022-12-04T16:16:08.723Z,96517.50
2022-12-04T16:18:36.777Z,96525.25
2022-12-04T16:21:03.678Z,96519.25
2022-12-04T16:23:32.523Z,96521.00
2022-12-04T16:25:59.204Z,96520.19
2022-12-04T16:28:25.993Z,96516.38
2022-12-04T16:30:52.952Z,96516.13
2022-12-04T16:33:19.853Z,96519.16
2022-12-04T16:35:46.555Z,96520.72
2022-12-04T16:38:17.169Z,96529.63
2022-12-04T16:40:45.984Z,96527.75
2022-12-04T16:43:15.405Z,96533.50
2022-12-04T16:45:53.893Z,96537.09
2022-12-04T16:48:22.162Z,96536.69
2022-12-04T16:50:53.217Z,96539.41
2022-12-04T16:53:22.441Z,96540.97
2022-12-04T16:55:50.996Z,96542.97
2022-12-04T16:58:24.714Z,96550.72
2022-12-04T17:00:57.297Z,96546.19
2022-12-04T17:03:28.005Z,96546.31
2022-12-04T17:05:55.645Z,96548.06
2022-12-04T17:08:22.777Z,96554.22
2022-12-04T17:10:49.979Z,96559.06
2022-12-04T17:13:21.008Z,96567.94
2022-12-04T17:15:48.686Z,96566.81
2022-12-04T17:18:20.778Z,96570.97
2022-12-04T17:20:48.530Z,96576.00
2022-12-04T17:23:16.733Z,96572.72
2022-12-04T17:25:43.633Z,96566.00
2022-12-04T17:28:10.518Z,96563.44
2022-12-04T17:30:37.281Z,96560.16
2022-12-04T17:33:05.477Z,96555.44
2022-12-04T17:35:32.516Z,96554.31
2022-12-04T17:38:05.670Z,96557.75
2022-12-04T17:40:33.246Z,96555.19
2022-12-04T17:43:00.201Z,96561.91
2022-12-04T17:45:31.241Z,96566.63
2022-12-04T17:48:00.401Z,96566.06
2022-12-04T17:50:27.033Z,96571.50
2022-12-04T17:52:53.845Z,96567.47
2022-12-04T17:55:20.548Z,96570.91
2022-12-04T17:57:47.342Z,96580.53
2022-12-04T18:00:14.393Z,96579.78
2022-12-04T18:02:42.495Z,96579.25
2022-12-04T18:05:09.898Z,96579.94
2022-12-04T18:07:36.708Z,96575.94
2022-12-04T18:10:03.820Z,96581.53
2022-12-04T18:12:30.693Z,96590.44
2022-12-04T18:14:57.369Z,96591.84
2022-12-04T18:17:24.166Z,96592.56
2022-12-04T18:19:50.806Z,96600.16
2022-12-04T18:22:17.541Z,96602.88
2022-12-04T18:24:44.297Z,96602.16
2022-12-04T18:27:11.084Z,96606.88
2022-12-04T18:29:37.812Z,96611.72
2022-12-04T18:32:04.798Z,96606.88
2022-12-04T18:34:31.533Z,96617.75
2022-12-04T18:36:58.296Z,96612.63
2022-12-04T18:39:26.261Z,96609.91
2022-12-04T18:41:57.011Z,96605.19
2022-12-04T18:44:23.957Z,96607.94
2022-12-04T18:46:50.865Z,96609.66
2022-12-04T18:49:21.527Z,96599.19
2022-12-04T18:51:55.778Z,96594.47
2022-12-04T18:54:25.086Z,96595.16
2022-12-04T18:56:52.045Z,96602.59
2022-12-04T18:59:21.862Z,96600.59
2022-12-04T19:01:50.255Z,96597.34
2022-12-04T19:04:18.713Z,96600.78
2022-12-04T19:06:48.116Z,96601.50
2022-12-04T19:09:17.444Z,96601.50
2022-12-04T19:11:44.672Z,96607.66
2022-12-04T19:14:22.413Z,96606.34
2022-12-04T19:16:50.673Z,96610.50
2022-12-04T19:19:19.811Z,96607.94
2022-12-04T19:21:48.131Z,96612.69
2022-12-04T19:24:14.897Z,96606.81
2022-12-04T19:26:42.729Z,96614.81
2022-12-04T19:29:12.951Z,96613.94
2022-12-04T19:31:39.802Z,96618.81
2022-12-04T19:34:06.791Z,96622.25
2022-12-04T19:36:34.690Z,96626.97
2022-12-04T19:39:01.855Z,96624.97
2022-12-04T19:41:30.243Z,96620.25
2022-12-04T19:43:59.685Z,96616.81
2022-12-04T19:46:30.441Z,96609.38
2022-12-04T19:49:01.967Z,96608.16
2022-12-04T19:51:32.163Z,96600.25
2022-12-04T19:53:59.418Z,96592.63
2022-12-04T19:56:27.324Z,96589.06
2022-12-04T19:58:56.250Z,96599.22
2022-12-04T20:01:25.431Z,96599.22
2022-12-04T20:03:53.093Z,96605.38
2022-12-04T20:06:21.415Z,96604.09
2022-12-04T20:08:54.010Z,96608.81
2022-12-04T20:11:20.930Z,96611.53
2022-12-04T20:13:49.080Z,96624.41
2022-12-04T20:16:17.984Z,96612.81
2022-12-04T20:18:45.372Z,96617.69
2022-12-04T20:21:13.338Z,96618.97
2022-12-04T20:23:41.932Z,96620.41
2022-12-04T20:26:11.109Z,96629.28
2022-12-04T20:28:38.016Z,96625.84
2022-12-04T20:31:22.036Z,96624.53
2022-12-04T20:33:50.933Z,96619.81
2022-12-04T20:36:21.931Z,96617.84
2022-12-04T20:38:50.014Z,96624.00
2022-12-04T20:41:16.781Z,96632.88
2022-12-04T20:43:44.009Z,96634.31
2022-12-04T20:46:32.406Z,96631.59
2022-12-04T20:49:01.241Z,96635.75
2022-12-04T20:51:35.143Z,96637.75
2022-12-04T20:54:02.510Z,96648.03
2022-12-04T20:56:33.061Z,96645.31
2022-12-04T20:59:02.774Z,96644.03
2022-12-04T21:01:30.054Z,96647.50
2022-12-04T21:03:58.616Z,96650.94
2022-12-04T21:06:35.947Z,96652.38
2022-12-04T21:09:08.021Z,96657.81
2022-12-04T21:11:44.348Z,96661.94
2022-12-04T21:14:38.229Z,96664.66
2022-12-04T21:17:06.834Z,96668.81
2022-12-04T21:19:33.677Z,96675.69
2022-12-04T21:22:00.432Z,96670.25
2022-12-04T21:24:28.710Z,96673.72
2022-12-04T21:26:56.128Z,96692.75
2022-12-04T21:29:23.292Z,96691.47
2022-12-04T21:31:50.131Z,96696.91
2022-12-04T21:34:17.937Z,96699.03
2022-12-04T21:36:46.355Z,96705.91
2022-12-04T21:39:14.593Z,96713.94
2022-12-04T21:41:59.907Z,96716.06
2022-12-04T21:44:32.854Z,96714.06
2022-12-04T21:47:05.926Z,96711.34
2022-12-04T21:49:48.742Z,96703.38
2022-12-04T21:52:16.229Z,96701.59
2022-12-04T21:54:42.895Z,96701.13
2022-12-04T21:57:12.892Z,96705.66
2022-12-04T21:59:39.984Z,96695.50
2022-12-04T22:02:06.884Z,96692.06
2022-12-04T22:04:33.694Z,96690.06
2022-12-04T22:07:00.465Z,96690.78
2022-12-04T22:09:27.365Z,96690.25
2022-12-04T22:11:54.221Z,96699.13
2022-12-04T22:14:21.002Z,96700.41
2022-12-04T22:16:50.839Z,96724.69
2022-12-04T22:19:17.538Z,96729.63
2022-12-04T22:21:44.506Z,96735.06
2022-12-04T22:24:11.465Z,96736.50
2022-12-04T22:26:38.998Z,96740.06
2022-12-04T22:29:27.076Z,96760.53
2022-12-04T22:31:52.740Z,96768.16
2022-12-04T22:34:19.575Z,96784.47
2022-12-04T22:36:46.304Z,96791.19
2022-12-04T22:39:13.027Z,96796.06
2022-12-04T22:41:39.745Z,96789.19
2022-12-04T22:44:06.518Z,96800.78
2022-12-04T22:46:33.881Z,96807.66
2022-12-04T22:49:01.296Z,96798.06
2022-12-04T22:51:28.597Z,96800.06
2022-12-04T22:53:57.843Z,96807.34
2022-12-04T22:56:29.591Z,96818.53
2022-12-04T22:58:57.934Z,96816.53
2022-12-04T23:01:27.602Z,96818.53
2022-12-04T23:03:55.082Z,96800.94
2022-12-04T23:06:23.427Z,96804.81
2022-12-04T23:08:54.762Z,96800.78
2022-12-04T23:11:21.824Z,96794.22
2022-12-04T23:13:54.276Z,96800.38
2022-12-04T23:16:23.230Z,96804.56
2022-12-04T23:18:50.098Z,96793.81
2022-12-04T23:21:17.420Z,96798.69
2022-12-04T23:23:45.376Z,96795.25
2022-12-04T23:26:15.064Z,96797.81
2022-12-04T23:28:41.869Z,96795.66
2022-12-04T23:31:08.954Z,96800.22
2022-12-04T23:33:35.837Z,96799.50
2022-12-04T23:36:03.979Z,96802.22
2022-12-04T23:38:31.350Z,96798.94
2022-12-04T23:41:08.794Z,96795.50
2022-12-04T23:43:35.952Z,96790.22
2022-12-04T23:46:08.972Z,96787.66
2022-12-04T23:48:38.086Z,96774.06
2022-12-04T23:51:04.780Z,96783.66
2022-12-04T23:53:31.525Z,96782.94
2022-12-04T23:56:24.001Z,96788.38
2022-12-04T23:58:52.886Z,96778.34
